Time;durP1;ratioP1;P1;durP2;ratioP2;P2;SDS_P1;SDS_P2;PMS_P1;PMS_P2;Temp;Humidity;BMP_temperature;BMP_pressure;BME280_temperature;BME280_humidity;BME280_pressure;Samples;Min_cycle;Max_cycle;Signal;HPM_P1;HPM_P2
2022/07/20 00:04:16;;;;;;;6.35;5.75;;;;;;;18.46;62.26;100942.98;3530162;79;21041;-77
2022/07/20 00:14:20;;;;;;;8.65;6.17;;;;;;;18.32;62.64;100937.01;3497427;79;21572;-78
2022/07/20 00:19:12;;;;;;;8.05;7.05;;;;;;;18.20;62.95;100941.50;3493148;79;20942;-78
2022/07/20 00:24:06;;;;;;;7.35;6.65;;;;;;;18.09;63.00;100941.62;3484671;79;20938;-77
2022/07/20 00:28:59;;;;;;;8.10;6.72;;;;;;;17.91;63.25;100951.02;3535615;79;22502;-77
2022/07/20 00:33:51;;;;;;;9.78;7.85;;;;;;;17.79;63.59;100951.96;3417708;80;20991;-77
2022/07/20 00:38:44;;;;;;;10.38;8.15;;;;;;;17.76;63.93;100960.32;3477211;79;21551;-78
2022/07/20 00:44:06;;;;;;;9.43;8.45;;;;;;;17.74;64.17;100962.96;3502276;79;21448;-78
2022/07/20 00:48:59;;;;;;;9.60;8.63;;;;;;;17.71;64.33;100971.77;3462351;79;21540;-77
2022/07/20 00:53:51;;;;;;;10.95;7.87;;;;;;;17.71;64.52;100974.84;3437442;79;21003;-77
2022/07/20 00:58:44;;;;;;;9.05;8.18;;;;;;;17.65;64.69;100972.25;3454781;79;20985;-77
2022/07/20 01:03:37;;;;;;;10.25;7.72;;;;;;;17.68;64.76;100973.55;3497589;79;20954;-77
2022/07/20 01:08:31;;;;;;;7.25;6.55;;;;;;;17.68;64.71;100974.41;3474508;79;21024;-77
2022/07/20 01:13:24;;;;;;;8.88;7.30;;;;;;;17.71;64.64;100984.05;3521448;79;21540;-77
2022/07/20 01:18:17;;;;;;;9.53;7.62;;;;;;;17.67;64.82;100979.67;3448078;80;22040;-77
2022/07/20 01:23:09;;;;;;;10.45;7.67;;;;;;;17.60;64.68;100980.19;3503761;77;21042;-77
2022/07/20 01:28:09;;;;;;;10.95;8.05;;;;;;;17.48;64.79;100973.26;3541735;79;21523;-77
2022/07/20 01:33:01;;;;;;;9.00;8.10;;;;;;;17.42;64.99;100979.88;3556917;79;20951;-77
2022/07/20 01:37:53;;;;;;;9.10;7.37;;;;;;;17.35;65.04;100986.07;3556861;78;20891;-77
2022/07/20 01:42:46;;;;;;;9.38;7.55;;;;;;;17.27;65.24;100981.30;3432777;81;20951;-77
2022/07/20 01:47:38;;;;;;;8.78;7.80;;;;;;;17.18;65.31;100980.05;3476511;79;21819;-77
2022/07/20 01:52:30;;;;;;;9.00;8.10;;;;;;;17.10;65.43;100978.33;3452600;80;21005;-77
2022/07/20 01:57:24;;;;;;;8.75;7.85;;;;;;;17.06;65.47;100981.87;3448701;81;20976;-77
2022/07/20 02:02:16;;;;;;;9.08;8.18;;;;;;;17.03;65.56;100979.25;3445864;81;20913;-77
2022/07/20 02:07:08;;;;;;;9.40;8.43;;;;;;;17.01;65.61;100984.95;3477891;81;21032;-78
2022/07/20 02:12:00;;;;;;;12.63;8.30;;;;;;;16.96;65.68;100977.54;3456822;80;20992;-78
2022/07/20 02:16:53;;;;;;;9.73;8.53;;;;;;;16.92;65.66;100979.31;3419659;81;21510;-77
2022/07/20 02:21:45;;;;;;;8.80;7.70;;;;;;;16.90;65.76;100982.80;3450106;82;20933;-77
2022/07/20 02:26:37;;;;;;;8.48;7.60;;;;;;;16.87;65.92;100989.41;3352714;82;21024;-78
2022/07/20 02:31:30;;;;;;;8.73;7.83;;;;;;;16.86;65.89;100995.52;3413142;81;20988;-77
2022/07/20 02:36:22;;;;;;;8.05;7.25;;;;;;;16.88;65.94;100995.07;3466537;79;20937;-77
2022/07/20 02:41:15;;;;;;;7.97;7.17;;;;;;;16.84;65.95;100997.29;3491216;79;20957;-77
2022/07/20 02:46:08;;;;;;;9.45;8.13;;;;;;;16.80;65.68;101009.97;3488625;78;21048;-77
2022/07/20 02:51:00;;;;;;;8.43;7.53;;;;;;;16.80;65.97;101017.85;3582499;79;20949;-77
2022/07/20 02:55:52;;;;;;;7.92;7.12;;;;;;;16.78;66.22;101022.66;3578452;78;21227;-77
2022/07/20 03:00:45;;;;;;;8.30;7.33;;;;;;;16.80;66.30;101012.60;3537812;78;20886;-78
2022/07/20 03:05:37;;;;;;;7.97;7.00;;;;;;;16.77;66.32;101018.27;3562685;77;21545;-77
2022/07/20 03:10:30;;;;;;;8.60;6.58;;;;;;;16.76;66.59;101019.61;3576856;77;21712;-77
2022/07/20 03:15:22;;;;;;;10.35;6.55;;;;;;;16.80;66.77;101026.59;3534084;77;20990;-77
2022/07/20 03:20:23;;;;;;;7.75;6.95;;;;;;;16.83;66.79;101036.20;3566465;77;20974;-77
2022/07/20 03:25:16;;;;;;;9.00;7.03;;;;;;;16.85;66.81;101037.13;3655170;76;21121;-77
2022/07/20 03:30:10;;;;;;;7.85;7.08;;;;;;;16.84;66.88;101035.37;3602123;77;21495;-77
2022/07/20 03:35:04;;;;;;;8.00;7.15;;;;;;;16.80;66.75;101033.16;3500737;79;20933;-77
2022/07/20 03:39:57;;;;;;;9.75;7.95;;;;;;;16.82;66.87;101038.41;3595882;76;20958;-77
2022/07/20 03:44:49;;;;;;;8.20;7.05;;;;;;;16.89;66.90;101037.54;3542387;77;20957;-77
2022/07/20 03:49:41;;;;;;;9.95;7.37;;;;;;;16.90;66.91;101036.64;3536315;78;21009;-77
2022/07/20 03:54:33;;;;;;;7.95;7.15;;;;;;;16.97;67.04;101043.61;3544203;78;20911;-77
2022/07/20 03:59:25;;;;;;;8.45;7.55;;;;;;;17.14;66.88;101040.92;3531424;78;21044;-77
2022/07/20 04:04:17;;;;;;;9.40;7.47;;;;;;;17.20;66.80;101053.16;3498693;78;20986;-78
2022/07/20 04:09:09;;;;;;;7.40;6.62;;;;;;;17.26;66.72;101055.73;3490882;78;21219;-78
2022/07/20 04:14:01;;;;;;;7.80;7.10;;;;;;;17.28;66.92;101055.31;3549468;78;20906;-77
2022/07/20 04:18:53;;;;;;;7.45;6.60;;;;;;;17.32;67.01;101054.41;3517306;78;21036;-77
2022/07/20 04:23:46;;;;;;;11.60;8.58;;;;;;;17.39;67.19;101062.69;3521547;78;20935;-78
2022/07/20 04:28:38;;;;;;;8.65;7.42;;;;;;;17.51;67.24;101059.99;3485715;80;21514;-77
2022/07/20 04:33:30;;;;;;;11.03;7.03;;;;;;;17.73;67.18;101059.84;3526032;78;20963;-77
2022/07/20 04:38:22;;;;;;;9.65;8.10;;;;;;;17.78;67.16;101064.64;3509430;79;20974;-77
2022/07/20 04:43:14;;;;;;;10.45;7.47;;;;;;;17.88;67.39;101069.41;3507013;78;20989;-76
2022/07/20 04:48:06;;;;;;;8.33;7.62;;;;;;;17.99;67.54;101075.48;3581422;77;20926;-76
2022/07/20 04:52:59;;;;;;;8.55;7.58;;;;;;;18.10;67.54;101072.30;3627575;77;20915;-76
2022/07/20 04:57:51;;;;;;;8.98;7.53;;;;;;;18.25;67.58;101079.18;3597188;77;20984;-76
2022/07/20 05:02:43;;;;;;;14.10;7.65;;;;;;;18.43;67.62;101073.32;3595227;77;20974;-76
2022/07/20 05:07:35;;;;;;;8.48;7.35;;;;;;;18.54;67.56;101075.39;3550820;77;21048;-76
2022/07/20 05:12:27;;;;;;;10.25;7.75;;;;;;;18.64;67.54;101074.41;3609273;77;21207;-76
2022/07/20 05:17:19;;;;;;;15.88;8.58;;;;;;;18.88;67.39;101068.47;3647583;75;20931;-75
2022/07/20 05:22:11;;;;;;;14.33;8.23;;;;;;;19.09;67.29;101075.70;3512683;77;21060;-76
2022/07/20 05:27:03;;;;;;;9.73;7.70;;;;;;;19.29;67.23;101081.58;3559594;77;21443;-76
2022/07/20 05:31:56;;;;;;;9.43;7.50;;;;;;;19.42;67.04;101075.26;3564412;77;21530;-76
2022/07/20 05:36:48;;;;;;;8.80;7.70;;;;;;;19.57;66.66;101086.48;3564734;77;20942;-76
2022/07/20 05:41:40;;;;;;;13.25;9.08;;;;;;;19.73;66.53;101095.94;3596379;77;21005;-76
2022/07/20 05:46:32;;;;;;;10.38;7.08;;;;;;;19.89;66.27;101099.22;3545791;77;20986;-76
2022/07/20 05:51:24;;;;;;;8.73;6.90;;;;;;;20.08;65.93;101097.14;3535429;77;20985;-76
2022/07/20 05:56:16;;;;;;;7.58;6.15;;;;;;;20.24;65.80;101096.89;3548153;77;21567;-76
2022/07/20 06:01:09;;;;;;;8.63;6.90;;;;;;;20.41;65.72;101090.87;3552242;77;20942;-74
2022/07/20 06:06:01;;;;;;;6.78;6.05;;;;;;;20.61;65.31;101093.61;3562732;77;21004;-75
2022/07/20 06:10:53;;;;;;;8.90;6.55;;;;;;;20.76;64.06;101101.26;3523624;77;21084;-74
2022/07/20 06:15:45;;;;;;;8.73;5.72;;;;;;;21.07;63.55;101098.89;3554986;78;20916;-74
2022/07/20 06:20:38;;;;;;;9.68;6.47;;;;;;;21.50;63.53;101094.49;3541030;78;20978;-75
2022/07/20 06:25:30;;;;;;;9.58;5.67;;;;;;;22.03;62.46;101097.63;3505725;78;20965;-75
2022/07/20 06:30:22;;;;;;;5.95;5.00;;;;;;;22.28;60.85;101105.00;3595421;78;21547;-75
2022/07/20 06:35:16;;;;;;;6.00;5.40;;;;;;;22.82;59.44;101112.84;3560852;78;20979;-75
2022/07/20 06:40:09;;;;;;;11.43;6.25;;;;;;;23.58;57.67;101103.12;3555864;77;21001;-75
2022/07/20 06:45:02;;;;;;;4.92;4.50;;;;;;;25.33;55.46;101103.38;3598967;77;21563;-75
2022/07/20 06:49:54;;;;;;;5.20;4.70;;;;;;;25.55;54.34;101097.22;3490240;78;21506;-75
2022/07/20 06:54:47;;;;;;;5.47;4.75;;;;;;;26.47;52.35;101105.88;3528031;78;20922;-75
2022/07/20 06:59:40;;;;;;;5.60;4.95;;;;;;;25.91;52.55;101103.32;3523610;78;20903;-75
2022/07/20 07:04:33;;;;;;;5.67;4.83;;;;;;;25.63;52.64;101097.33;3482057;78;20931;-75
2022/07/20 07:09:25;;;;;;;5.35;4.78;;;;;;;25.52;51.89;101105.31;3491130;78;20911;-75
2022/07/20 07:14:17;;;;;;;5.97;4.75;;;;;;;26.14;50.66;101103.73;3504697;78;21023;-75
2022/07/20 07:19:10;;;;;;;8.30;5.28;;;;;;;26.34;49.98;101102.41;3534058;78;20967;-76
2022/07/20 07:24:03;;;;;;;5.90;4.90;;;;;;;26.21;49.63;101099.88;3499715;78;21045;-78
2022/07/20 07:28:55;;;;;;;5.37;4.58;;;;;;;26.92;47.72;101093.69;3518450;77;21095;-78
2022/07/20 07:33:48;;;;;;;8.05;4.80;;;;;;;28.29;46.00;101098.28;3545606;78;20966;-79
2022/07/20 07:38:41;;;;;;;7.17;4.78;;;;;;;28.97;44.60;101092.08;3572004;78;20908;-79
2022/07/20 07:43:35;;;;;;;4.87;4.22;;;;;;;28.96;44.18;101087.69;3509186;78;39873;-79
2022/07/20 07:48:27;;;;;;;6.78;4.35;;;;;;;31.88;40.27;101082.70;3538232;77;21009;-79
2022/07/20 07:53:20;;;;;;;4.42;4.05;;;;;;;31.71;40.03;101085.15;3525287;78;21579;-79
2022/07/20 07:58:12;;;;;;;5.37;4.08;;;;;;;30.52;41.14;101095.78;3521452;77;20997;-77
2022/07/20 08:03:05;;;;;;;6.12;3.70;;;;;;;32.25;38.67;101094.54;3590661;77;20995;-76
2022/07/20 08:08:02;;;;;;;7.40;4.10;;;;;;;32.10;38.50;101088.39;3509169;77;20993;-77
2022/07/20 08:12:54;;;;;;;5.80;4.40;;;;;;;31.97;36.87;101085.25;3561663;77;20969;-76
2022/07/20 08:17:47;;;;;;;4.62;3.92;;;;;;;34.17;34.44;101077.09;3554682;78;21578;-76
2022/07/20 08:22:39;;;;;;;4.75;4.30;;;;;;;33.53;35.40;101073.86;3571375;78;20960;-76
2022/07/20 08:27:31;;;;;;;6.65;4.58;;;;;;;34.76;34.36;101069.88;3538871;77;20997;-77
2022/07/20 08:32:25;;;;;;;5.10;3.47;;;;;;;37.04;32.11;101063.38;3561492;78;20959;-77
2022/07/20 08:37:18;;;;;;;4.00;3.70;;;;;;;38.05;30.61;101064.95;3575474;77;21010;-77
2022/07/20 08:42:13;;;;;;;4.15;3.85;;;;;;;35.67;31.75;101063.35;3541613;77;21010;-77
2022/07/20 08:47:06;;;;;;;4.40;3.52;;;;;;;35.51;31.39;101053.47;3635570;77;21051;-78
2022/07/20 08:51:58;;;;;;;4.20;3.80;;;;;;;38.33;29.25;101046.93;3568831;77;20994;-76
2022/07/20 08:56:50;;;;;;;3.72;3.42;;;;;;;40.10;27.30;101053.53;3605687;77;20946;-77
2022/07/20 09:02:02;;;;;;;3.67;3.37;;;;;;;39.82;26.59;101061.30;3593886;77;21100;-76
2022/07/20 09:06:55;;;;;;;4.40;4.00;;;;;;;37.16;28.89;101052.31;3550313;77;21516;-75
2022/07/20 09:11:49;;;;;;;5.40;3.98;;;;;;;34.98;29.79;101057.35;3562529;77;21520;-76
2022/07/20 09:16:48;;;;;;;5.03;3.83;;;;;;;34.38;30.77;101061.61;3537356;77;20958;-76
2022/07/20 09:21:41;;;;;;;4.28;3.77;;;;;;;33.06;31.95;101060.19;3592914;77;21254;-78
2022/07/20 09:26:36;;;;;;;6.80;4.60;;;;;;;32.63;33.68;101058.74;3528328;77;22031;-76
2022/07/20 09:31:38;;;;;;;4.95;3.80;;;;;;;35.46;30.14;101059.74;3593970;77;21530;-78
2022/07/20 09:36:34;;;;;;;7.00;4.08;;;;;;;37.93;28.71;101054.75;3563360;77;20994;-77
2022/07/20 09:41:31;;;;;;;4.95;3.92;;;;;;;36.72;29.35;101069.34;3574223;77;22535;-78
2022/07/20 09:46:26;;;;;;;5.53;4.00;;;;;;;35.01;30.75;101059.81;3583811;77;20958;-78
2022/07/20 09:51:38;;;;;;;3.83;3.22;;;;;;;36.61;28.98;101056.72;3537141;77;21563;-78
2022/07/20 09:56:33;;;;;;;7.47;3.35;;;;;;;38.30;27.25;101056.72;3551775;77;21488;-76
2022/07/20 10:01:29;;;;;;;5.22;3.70;;;;;;;39.68;26.57;101040.59;3568793;77;21006;-77
2022/07/20 10:06:24;;;;;;;3.10;2.90;;;;;;;40.56;24.87;101044.66;3628122;77;20946;-78
2022/07/20 10:11:19;;;;;;;3.37;3.15;;;;;;;40.87;23.61;101045.01;3581339;77;21503;-77
2022/07/20 10:16:31;;;;;;;3.42;3.08;;;;;;;41.27;23.13;101050.77;3597664;79;20926;-77
2022/07/20 10:21:47;;;;;;;2.98;2.60;;;;;;;41.36;23.58;101049.77;3605313;77;22002;-76
2022/07/20 10:26:39;;;;;;;4.78;3.10;;;;;;;41.52;22.09;101037.50;3634951;77;21530;-76
2022/07/20 10:31:48;;;;;;;5.67;3.15;;;;;;;41.04;21.91;101034.15;3582266;77;20946;-76
2022/07/20 10:36:43;;;;;;;3.33;3.00;;;;;;;41.33;22.46;101037.30;3551428;77;20947;-76
2022/07/20 10:41:37;;;;;;;3.92;3.52;;;;;;;41.54;21.75;101038.70;3589867;77;21489;-76
2022/07/20 10:46:36;;;;;;;4.35;3.12;;;;;;;41.07;22.60;101044.73;3587940;77;20912;-75
2022/07/20 10:51:28;;;;;;;6.30;3.55;;;;;;;41.01;21.97;101049.47;3498167;79;20951;-77
2022/07/20 10:56:29;;;;;;;3.10;2.80;;;;;;;40.50;22.30;101043.44;3517535;79;21578;-75
2022/07/20 11:01:22;;;;;;;3.12;2.83;;;;;;;40.68;22.46;101049.33;3490164;80;20899;-87
2022/07/20 11:06:23;;;;;;;4.03;3.00;;;;;;;40.41;21.82;101049.87;3564287;78;20992;-89
2022/07/20 11:11:22;;;;;;;3.47;2.95;;;;;;;40.16;22.49;101037.42;3517161;79;22092;-82
2022/07/20 11:16:19;;;;;;;3.45;3.08;;;;;;;39.88;23.94;101031.74;3537041;79;20927;-84
2022/07/20 11:21:12;;;;;;;4.28;3.08;;;;;;;38.25;24.04;101026.95;3512954;79;20977;-82
2022/07/20 11:26:04;;;;;;;2.98;2.77;;;;;;;37.16;24.89;101037.92;3495325;79;20993;-83
2022/07/20 11:30:58;;;;;;;3.90;3.00;;;;;;;36.05;24.97;101034.91;3508249;78;21448;-84
2022/07/20 11:35:50;;;;;;;3.15;2.95;;;;;;;35.06;25.85;101037.34;3522276;79;20927;-82
2022/07/20 11:40:58;;;;;;;3.30;3.08;;;;;;;34.59;26.55;101030.68;3558144;78;20930;-83
2022/07/20 11:45:51;;;;;;;6.37;3.50;;;;;;;34.55;27.09;101030.07;3536655;77;20986;-80
2022/07/20 11:50:44;;;;;;;4.33;2.60;;;;;;;34.54;28.03;101032.42;3527587;77;21019;-84
2022/07/20 11:55:37;;;;;;;2.90;2.70;;;;;;;34.34;27.30;101010.18;3605929;77;20978;-84
2022/07/20 12:00:30;;;;;;;3.72;3.17;;;;;;;34.25;27.54;101008.22;3580134;77;21290;-84
2022/07/20 12:05:22;;;;;;;3.65;3.35;;;;;;;34.24;27.17;101010.56;3626456;77;20980;-83
2022/07/20 12:10:15;;;;;;;4.25;2.55;;;;;;;34.18;29.14;100998.42;3581173;77;21715;-81
2022/07/20 12:15:09;;;;;;;3.25;2.90;;;;;;;34.50;28.70;100997.21;3580958;77;21037;-82
2022/07/20 12:20:01;;;;;;;4.20;3.00;;;;;;;34.52;27.85;101003.34;3611089;77;21184;-88
2022/07/20 12:25:01;;;;;;;3.27;3.02;;;;;;;34.38;28.00;100999.53;3618528;77;20993;-89
2022/07/20 12:29:54;;;;;;;3.35;3.05;;;;;;;34.46;27.80;100995.72;3577369;77;20937;-83
2022/07/20 12:34:54;;;;;;;4.22;3.02;;;;;;;34.51;27.96;100985.41;3583397;78;20988;-81
2022/07/20 12:39:53;;;;;;;3.75;3.30;;;;;;;34.48;29.00;100992.40;3592799;77;20962;-82
2022/07/20 12:44:46;;;;;;;3.60;3.10;;;;;;;34.50;28.28;100989.11;3594442;77;22427;-82
2022/07/20 12:49:39;;;;;;;4.30;3.10;;;;;;;34.52;28.93;100985.80;3541838;78;21463;-81
2022/07/20 12:54:32;;;;;;;3.37;3.08;;;;;;;34.53;29.43;100986.14;3506265;79;20986;-81
2022/07/20 12:59:24;;;;;;;3.12;2.92;;;;;;;34.66;29.73;100983.81;3510735;79;21070;-85
2022/07/20 13:04:20;;;;;;;2.95;2.62;;;;;;;34.66;28.56;100985.16;3509787;79;20960;-80
2022/07/20 13:09:18;;;;;;;3.15;2.80;;;;;;;34.74;28.89;100974.64;3476456;79;21047;-80
2022/07/20 13:14:15;;;;;;;3.42;3.20;;;;;;;34.74;28.81;100977.34;3483760;79;21515;-80
2022/07/20 13:19:08;;;;;;;3.12;2.92;;;;;;;34.55;27.78;100967.98;3482812;79;20988;-80
2022/07/20 13:24:00;;;;;;;3.55;3.02;;;;;;;34.49;28.12;100971.69;3549426;78;20962;-80
2022/07/20 13:28:52;;;;;;;3.83;3.52;;;;;;;34.58;28.76;100970.09;3498379;78;20950;-80
2022/07/20 13:33:45;;;;;;;3.45;3.10;;;;;;;34.46;28.05;100966.02;3478805;79;21648;-83
2022/07/20 13:38:38;;;;;;;5.50;4.20;;;;;;;34.44;28.10;100963.95;3500046;79;21027;-83
2022/07/20 13:43:31;;;;;;;7.35;3.42;;;;;;;34.36;29.02;100963.22;3495861;79;20977;-82
2022/07/20 13:48:23;;;;;;;5.05;3.12;;;;;;;34.45;30.37;100952.18;3485628;80;20934;-82
2022/07/20 13:53:17;;;;;;;3.50;3.20;;;;;;;34.62;29.20;100951.30;3600750;77;22163;-82
2022/07/20 13:58:10;;;;;;;3.70;3.10;;;;;;;34.72;29.13;100952.31;3610532;77;21124;-82
2022/07/20 14:03:03;;;;;;;4.33;3.10;;;;;;;34.47;28.16;100948.86;3586924;77;21006;-83
2022/07/20 14:07:55;;;;;;;4.15;3.17;;;;;;;34.29;28.83;100942.25;3625229;77;20970;-85
2022/07/20 14:12:48;;;;;;;3.42;3.20;;;;;;;34.38;28.44;100942.86;3607410;77;20974;-81
2022/07/20 14:17:41;;;;;;;5.22;3.42;;;;;;;34.17;28.17;100927.36;3584346;77;21247;-84
2022/07/20 14:22:34;;;;;;;3.45;3.00;;;;;;;34.27;28.11;100925.30;3639916;77;20958;-84
2022/07/20 14:27:26;;;;;;;5.03;3.30;;;;;;;34.23;28.25;100921.14;3585357;77;21016;-82
2022/07/20 14:32:18;;;;;;;3.58;3.10;;;;;;;34.19;27.91;100917.33;3527266;77;21020;-82
2022/07/20 14:37:11;;;;;;;3.50;3.20;;;;;;;34.18;28.17;100923.72;3599639;77;21418;-79
2022/07/20 14:42:04;;;;;;;3.70;3.30;;;;;;;34.15;28.57;100915.83;3577994;77;21556;-80
2022/07/20 14:46:57;;;;;;;3.75;3.40;;;;;;;34.07;28.82;100919.62;3590174;77;20974;-82
2022/07/20 14:51:50;;;;;;;4.20;3.83;;;;;;;34.08;28.44;100920.50;3593915;77;20992;-79
2022/07/20 14:56:43;;;;;;;5.22;3.25;;;;;;;34.06;28.27;100909.83;3567539;77;20985;-79
2022/07/20 15:01:37;;;;;;;3.55;3.05;;;;;;;34.15;28.53;100907.73;3570657;77;21437;-77
2022/07/20 15:06:30;;;;;;;2.95;2.70;;;;;;;34.12;28.25;100903.92;3535755;77;20970;-75
2022/07/20 15:11:22;;;;;;;3.72;2.83;;;;;;;34.02;29.07;100896.22;3584736;77;21965;-74
2022/07/20 15:16:15;;;;;;;3.50;3.20;;;;;;;33.91;28.70;100892.14;3624622;77;21194;-74
2022/07/20 15:21:07;;;;;;;3.72;3.00;;;;;;;33.93;28.76;100889.72;3630757;77;21225;-74
2022/07/20 15:26:00;;;;;;;3.65;2.80;;;;;;;33.84;28.46;100874.73;3560836;77;20967;-75
2022/07/20 15:30:52;;;;;;;3.90;2.90;;;;;;;33.76;29.37;100886.98;3626227;77;21566;-74
2022/07/20 15:35:44;;;;;;;2.77;2.58;;;;;;;33.61;28.89;100880.08;3534113;77;21675;-75
2022/07/20 15:40:37;;;;;;;3.25;2.95;;;;;;;33.59;29.22;100873.92;3572102;77;20983;-75
2022/07/20 15:45:29;;;;;;;3.47;3.17;;;;;;;33.54;28.49;100874.30;3613185;77;20980;-75
2022/07/20 15:50:21;;;;;;;3.00;2.80;;;;;;;33.42;28.62;100868.01;3648885;77;20911;-76
2022/07/20 15:55:14;;;;;;;4.37;3.10;;;;;;;33.40;29.67;100861.03;3563430;77;20935;-74
2022/07/20 16:00:10;;;;;;;4.80;3.45;;;;;;;33.30;29.37;100856.83;3596234;77;20984;-74
2022/07/20 16:05:09;;;;;;;3.83;3.50;;;;;;;33.07;29.25;100861.24;3549516;77;21207;-74
2022/07/20 16:09:58;;;;;;;5.00;3.60;;;;;;;33.04;29.32;100855.61;3579186;77;20980;-74
2022/07/20 16:14:54;;;;;;;4.97;3.60;;;;;;;32.99;29.69;100851.06;3574333;77;20982;-75
2022/07/20 16:19:45;;;;;;;3.60;3.30;;;;;;;32.83;29.38;100849.16;3611296;77;20990;-74
2022/07/20 16:24:38;;;;;;;3.87;3.58;;;;;;;32.73;29.47;100856.19;3553405;77;21200;-74
2022/07/20 16:29:31;;;;;;;3.72;3.25;;;;;;;32.69;29.62;100848.83;3553641;77;21559;-74
2022/07/20 16:34:24;;;;;;;3.70;3.40;;;;;;;32.55;29.56;100850.30;3566097;77;21014;-74
2022/07/20 16:39:18;;;;;;;3.80;3.50;;;;;;;32.48;30.04;100843.16;3588365;77;22257;-74
2022/07/20 16:44:11;;;;;;;5.22;3.52;;;;;;;32.46;29.95;100853.19;3560160;77;20941;-74
2022/07/20 16:49:04;;;;;;;6.87;3.95;;;;;;;32.32;29.97;100843.91;3539889;77;22197;-74
2022/07/20 16:53:57;;;;;;;4.28;3.62;;;;;;;32.15;30.25;100840.63;3591711;77;21558;-74
2022/07/20 16:58:49;;;;;;;4.37;3.98;;;;;;;32.09;31.02;100834.36;3568348;77;21009;-74
2022/07/20 17:03:42;;;;;;;4.45;3.80;;;;;;;31.82;30.89;100829.95;3571717;77;21020;-74
2022/07/20 17:08:34;;;;;;;3.98;3.58;;;;;;;31.67;31.23;100832.36;3533595;77;21459;-73
2022/07/20 17:13:27;;;;;;;3.70;3.37;;;;;;;31.57;30.96;100830.81;3554763;77;21264;-74
2022/07/20 17:18:19;;;;;;;4.80;3.27;;;;;;;31.46;30.88;100823.92;3547821;77;21049;-74
2022/07/20 17:23:11;;;;;;;4.20;3.90;;;;;;;31.45;31.36;100828.45;3595000;77;20926;-73
2022/07/20 17:28:04;;;;;;;5.17;3.33;;;;;;;31.39;32.07;100828.88;3555634;78;21682;-74
2022/07/20 17:32:56;;;;;;;5.15;3.85;;;;;;;31.28;32.72;100830.08;3531594;78;21055;-74
2022/07/20 17:37:49;;;;;;;5.42;3.72;;;;;;;31.06;32.42;100835.57;3532130;77;20950;-74
2022/07/20 17:42:43;;;;;;;7.08;4.15;;;;;;;30.85;33.13;100827.09;3526743;77;20997;-74
2022/07/20 17:47:36;;;;;;;9.63;4.05;;;;;;;30.65;33.46;100836.47;3539356;77;21480;-74
2022/07/20 17:52:28;;;;;;;6.42;3.72;;;;;;;30.38;34.17;100825.23;3581756;77;20994;-74
2022/07/20 17:57:20;;;;;;;6.40;4.00;;;;;;;30.12;35.78;100822.87;3562019;77;21116;-73
2022/07/20 18:02:13;;;;;;;7.42;3.52;;;;;;;29.75;35.80;100825.66;3593371;77;21017;-74
2022/07/20 18:07:06;;;;;;;8.05;4.90;;;;;;;29.49;36.28;100824.05;3546070;77;21506;-74
2022/07/20 18:11:58;;;;;;;5.70;4.65;;;;;;;29.19;37.25;100828.08;3579214;77;21053;-74
2022/07/20 18:16:50;;;;;;;6.30;4.25;;;;;;;28.88;37.92;100831.20;3573892;77;21078;-74
2022/07/20 18:21:43;;;;;;;5.75;3.95;;;;;;;28.59;39.30;100839.08;3564382;77;22119;-73
2022/07/20 18:26:35;;;;;;;10.13;4.90;;;;;;;28.29;39.64;100838.95;3551125;78;20900;-73
2022/07/20 18:31:28;;;;;;;7.83;4.80;;;;;;;27.98;40.40;100845.98;3534720;78;22058;-74
2022/07/20 18:36:20;;;;;;;7.42;4.45;;;;;;;27.72;41.26;100848.22;3530524;77;21010;-73
2022/07/20 18:41:12;;;;;;;5.17;4.67;;;;;;;27.42;41.47;100855.13;3546420;77;21470;-73
2022/07/20 18:46:07;;;;;;;7.97;4.80;;;;;;;27.15;42.24;100860.45;3574251;77;20993;-73
2022/07/20 18:50:59;;;;;;;8.10;4.33;;;;;;;26.86;42.61;100869.87;3604786;77;21683;-73
2022/07/20 18:55:53;;;;;;;14.38;5.33;;;;;;;26.59;43.53;100878.23;3609245;77;21016;-73
2022/07/20 19:00:50;;;;;;;15.58;5.22;;;;;;;26.31;43.83;100878.68;3611537;77;20934;-73
2022/07/20 19:05:45;;;;;;;14.58;5.00;;;;;;;26.14;44.50;100878.11;3585879;77;21596;-73
2022/07/20 19:10:37;;;;;;;11.22;5.65;;;;;;;26.02;45.04;100883.98;3560606;77;20922;-73
2022/07/20 19:15:30;;;;;;;10.93;5.20;;;;;;;25.82;44.90;100888.36;3591806;77;21236;-73
2022/07/20 19:20:25;;;;;;;9.58;6.03;;;;;;;25.61;45.17;100892.85;3665329;76;21425;-73
2022/07/20 19:25:18;;;;;;;7.13;5.00;;;;;;;25.46;45.19;100894.83;3569615;78;20977;-73
2022/07/20 19:30:14;;;;;;;7.03;5.10;;;;;;;25.39;44.28;100903.52;3574774;77;20985;-73
2022/07/20 19:35:07;;;;;;;6.08;4.53;;;;;;;25.34;44.79;100901.99;3566865;77;21404;-73
2022/07/20 19:40:00;;;;;;;8.03;4.85;;;;;;;25.22;44.87;100906.88;3542709;77;21851;-73
2022/07/20 19:49:44;;;;;;;7.70;5.50;;;;;;;25.05;45.15;100901.36;3636891;77;21721;-73
2022/07/20 19:54:35;;;;;;;5.72;4.33;;;;;;;24.88;45.39;100913.55;3523183;79;21879;-74
2022/07/20 19:59:27;;;;;;;7.00;4.55;;;;;;;24.77;45.51;100912.23;3540082;80;22381;-74
2022/07/20 20:04:18;;;;;;;9.05;5.55;;;;;;;24.59;45.97;100917.33;3493272;80;20988;-73
2022/07/20 20:09:11;;;;;;;5.83;5.20;;;;;;;24.33;46.27;100925.80;3469701;80;21058;-73
2022/07/20 20:14:02;;;;;;;7.45;5.05;;;;;;;24.18;46.65;100935.64;3570025;78;20935;-74
2022/07/20 20:18:53;;;;;;;5.65;5.15;;;;;;;24.06;46.54;100936.97;3433494;80;21283;-73
2022/07/20 20:23:45;;;;;;;7.17;4.62;;;;;;;23.94;47.16;100936.94;3469943;79;22117;-74
2022/07/20 20:28:36;;;;;;;7.05;4.75;;;;;;;23.81;47.59;100942.75;3530414;78;20952;-73
2022/07/20 20:33:28;;;;;;;4.80;4.33;;;;;;;23.60;47.57;100938.53;3513618;79;20999;-73
2022/07/20 20:38:19;;;;;;;5.42;4.92;;;;;;;23.44;48.36;100931.54;3493540;79;20960;-73
2022/07/20 20:43:10;;;;;;;6.83;4.65;;;;;;;23.35;48.37;100939.81;3492230;80;21243;-74
2022/07/20 20:48:01;;;;;;;5.53;4.67;;;;;;;23.19;48.78;100937.64;3499983;79;21465;-73
2022/07/20 20:52:53;;;;;;;7.58;5.20;;;;;;;23.01;49.25;100935.08;3441534;80;20908;-74
2022/07/20 20:57:47;;;;;;;4.62;3.83;;;;;;;22.85;49.96;100932.03;3478359;79;21003;-73
2022/07/20 21:02:38;;;;;;;6.75;4.25;;;;;;;22.67;49.99;100926.44;3487531;80;20967;-73
2022/07/20 21:07:29;;;;;;;5.58;4.50;;;;;;;22.52;50.10;100927.74;3487516;80;21337;-73
2022/07/20 21:12:20;;;;;;;6.53;4.22;;;;;;;22.35;50.75;100937.05;3462368;80;21560;-73
2022/07/20 21:17:11;;;;;;;5.28;4.12;;;;;;;22.23;50.77;100937.36;3484511;80;20951;-73
2022/07/20 21:22:03;;;;;;;7.83;4.00;;;;;;;22.11;51.19;100928.46;3483724;80;20978;-73
2022/07/20 21:26:55;;;;;;;5.70;4.20;;;;;;;21.96;51.48;100926.62;3470761;80;21682;-73
2022/07/20 21:31:47;;;;;;;7.05;4.87;;;;;;;21.82;52.11;100940.67;3526583;80;21380;-73
2022/07/20 21:36:40;;;;;;;12.50;6.35;;;;;;;21.66;52.94;100947.70;3514689;79;21476;-74
2022/07/20 21:41:33;;;;;;;5.20;4.60;;;;;;;21.46;53.17;100942.02;3482766;79;21470;-74
2022/07/20 21:46:24;;;;;;;9.03;4.60;;;;;;;21.30;53.51;100945.03;3495893;80;20984;-74
2022/07/20 21:51:15;;;;;;;5.37;4.47;;;;;;;21.19;54.31;100952.33;3471090;80;21462;-74
2022/07/20 21:56:07;;;;;;;5.85;4.60;;;;;;;21.08;54.55;100954.36;3485595;80;21364;-74
2022/07/20 22:00:58;;;;;;;7.22;4.80;;;;;;;20.95;54.80;100951.98;3483495;80;20986;-74
2022/07/20 22:05:49;;;;;;;8.33;5.35;;;;;;;20.87;54.88;100950.41;3477461;80;20921;-74
2022/07/20 22:10:40;;;;;;;5.08;4.58;;;;;;;20.73;55.19;100943.67;3480403;80;20975;-74
2022/07/20 22:15:32;;;;;;;7.58;5.05;;;;;;;20.59;55.53;100947.48;3483064;80;21577;-75
2022/07/20 22:20:23;;;;;;;6.12;5.60;;;;;;;20.41;55.67;100950.92;3505621;80;21520;-75
2022/07/20 22:25:14;;;;;;;8.48;5.45;;;;;;;20.26;56.23;100963.09;3465588;80;20952;-75
2022/07/20 22:30:09;;;;;;;8.38;5.85;;;;;;;20.14;56.32;100970.81;3506815;79;20987;-75
2022/07/20 22:35:01;;;;;;;5.47;4.95;;;;;;;20.03;56.50;100963.09;3461670;79;20975;-75
2022/07/20 22:39:52;;;;;;;6.65;5.75;;;;;;;19.93;56.58;100964.14;3517351;79;21024;-74
2022/07/20 22:44:44;;;;;;;5.65;4.70;;;;;;;19.89;57.05;100959.80;3525786;79;21023;-75
2022/07/20 22:49:35;;;;;;;7.00;4.67;;;;;;;19.76;57.08;100961.36;3448493;80;20900;-75
2022/07/20 22:54:26;;;;;;;10.85;5.33;;;;;;;19.66;57.46;100959.73;3421435;80;20962;-75